createdAt,value
2023-04-02T00:01:01.937Z,72.91
2023-04-02T00:09:36.481Z,72.82
2023-04-02T00:18:00.646Z,72.95
2023-04-02T00:26:34.119Z,72.94
2023-04-02T00:34:58.956Z,73.20
2023-04-02T00:43:30.858Z,72.94
2023-04-02T00:52:00.742Z,73.19
2023-04-02T01:00:44.150Z,73.01
2023-04-02T01:09:32.792Z,73.11
2023-04-02T01:18:04.788Z,73.14
2023-04-02T01:26:46.190Z,73.02
2023-04-02T01:35:10.518Z,72.96
2023-04-02T01:43:53.650Z,73.19
2023-04-02T01:52:26.631Z,73.16
2023-04-02T02:00:56.331Z,73.21
2023-04-02T02:09:32.810Z,73.19
2023-04-02T02:18:04.549Z,73.34
2023-04-02T02:26:29.630Z,73.24
2023-04-02T02:35:02.114Z,73.22
2023-04-02T02:43:27.036Z,73.14
2023-04-02T02:51:58.221Z,73.30
2023-04-02T03:00:27.201Z,73.23
2023-04-02T03:08:53.537Z,73.29
2023-04-02T03:17:43.784Z,73.47
2023-04-02T03:26:19.271Z,73.30
2023-04-02T03:34:49.826Z,73.18
2023-04-02T03:43:24.312Z,73.47
2023-04-02T03:52:16.882Z,73.61
2023-04-02T04:00:45.021Z,73.37
2023-04-02T04:09:15.131Z,73.49
2023-04-02T04:18:02.586Z,73.37
2023-04-02T04:26:41.507Z,73.38
2023-04-02T04:35:15.753Z,73.52
2023-04-02T04:43:56.239Z,73.57
2023-04-02T04:52:28.050Z,73.59
2023-04-02T05:01:05.101Z,73.43
2023-04-02T05:10:16.313Z,73.37
2023-04-02T05:19:04.827Z,73.57
2023-04-02T05:27:35.873Z,73.30
2023-04-02T05:36:09.635Z,73.30
2023-04-02T05:44:55.679Z,73.39
2023-04-02T05:53:24.723Z,73.43
2023-04-02T06:01:56.177Z,73.47
2023-04-02T06:10:29.185Z,73.59
2023-04-02T06:18:52.795Z,73.67
2023-04-02T06:27:20.507Z,73.36
2023-04-02T06:35:47.056Z,73.38
2023-04-02T06:44:23.767Z,73.33
2023-04-02T06:53:06.519Z,73.36
2023-04-02T07:01:38.107Z,73.61
2023-04-02T07:10:01.972Z,73.45
2023-04-02T07:18:29.901Z,73.48
2023-04-02T07:26:54.377Z,73.34
2023-04-02T07:35:17.926Z,73.57
2023-04-02T07:43:44.233Z,73.49
2023-04-02T07:52:07.498Z,73.42
2023-04-02T08:00:30.547Z,73.36
2023-04-02T08:08:54.317Z,73.44
2023-04-02T08:17:17.277Z,73.52
2023-04-02T08:25:40.476Z,73.75
2023-04-02T08:34:04.788Z,73.50
2023-04-02T08:43:03.462Z,73.34
2023-04-02T08:51:31.201Z,73.66
2023-04-02T09:00:10.707Z,73.75
2023-04-02T09:08:35.891Z,73.72
2023-04-02T09:17:06.699Z,73.79
2023-04-02T09:25:34.545Z,73.61
2023-04-02T09:33:58.044Z,73.86
2023-04-02T09:42:38.093Z,74.01
2023-04-02T09:51:06.246Z,73.71
2023-04-02T09:59:29.620Z,73.81
2023-04-02T10:07:55.643Z,73.75
2023-04-02T10:16:21.687Z,73.89
2023-04-02T10:24:45.430Z,73.67
2023-04-02T10:33:36.104Z,73.69
2023-04-02T10:42:24.732Z,73.71
2023-04-02T10:50:57.639Z,73.68
2023-04-02T10:59:30.579Z,73.51
2023-04-02T11:08:24.932Z,73.62
2023-04-02T11:16:53.456Z,73.37
2023-04-02T11:25:23.218Z,73.55
2023-04-02T11:33:48.770Z,73.56
2023-04-02T11:42:19.258Z,73.42
2023-04-02T11:50:46.630Z,73.51
2023-04-02T11:59:30.143Z,73.54
2023-04-02T12:07:56.815Z,73.50
2023-04-02T12:16:22.051Z,73.51
2023-04-02T12:24:48.103Z,73.56
2023-04-02T12:33:37.291Z,73.45
2023-04-02T12:42:01.426Z,73.53
2023-04-02T12:50:24.527Z,73.46
2023-04-02T12:59:01.445Z,73.54
2023-04-02T13:07:27.396Z,73.60
2023-04-02T13:16:05.697Z,73.39
2023-04-02T13:24:33.308Z,73.47
2023-04-02T13:32:56.626Z,73.35
2023-04-02T13:41:27.547Z,73.54
2023-04-02T13:49:50.561Z,73.49
2023-04-02T13:58:14.118Z,73.26
2023-04-02T14:07:10.920Z,73.47
2023-04-02T14:15:43.888Z,73.50
2023-04-02T14:24:12.938Z,73.69
2023-04-02T14:32:54.904Z,73.57
2023-04-02T14:41:39.704Z,73.49
2023-04-02T14:50:17.517Z,73.42
2023-04-02T14:58:48.778Z,73.40
2023-04-02T15:07:19.821Z,73.29
2023-04-02T15:15:56.764Z,73.59
2023-04-02T15:24:32.222Z,73.54
2023-04-02T15:32:59.192Z,73.49
2023-04-02T15:41:26.771Z,73.74
2023-04-02T15:50:24.497Z,73.76
2023-04-02T15:59:12.162Z,73.80
2023-04-02T16:07:53.669Z,73.79
2023-04-02T16:16:26.890Z,73.57
2023-04-02T16:25:00.357Z,73.50
2023-04-02T16:33:35.680Z,73.71
2023-04-02T16:42:17.630Z,73.75
2023-04-02T16:50:49.678Z,73.75
2023-04-02T16:59:27.753Z,73.53
2023-04-02T17:07:52.948Z,73.46
2023-04-02T17:16:20.905Z,73.77
2023-04-02T17:24:53.928Z,73.59
2023-04-02T17:33:19.337Z,73.49
2023-04-02T17:42:07.426Z,73.58
2023-04-02T17:50:53.634Z,73.55
2023-04-02T17:59:38.466Z,73.52
2023-04-02T18:08:29.989Z,73.38
2023-04-02T18:17:27.367Z,73.32
2023-04-02T18:25:54.146Z,73.52
2023-04-02T18:34:40.553Z,73.38
2023-04-02T18:43:12.178Z,73.50
2023-04-02T18:51:38.677Z,73.50
2023-04-02T19:00:05.933Z,73.50
2023-04-02T19:08:50.233Z,73.39
2023-04-02T19:17:22.890Z,73.60
2023-04-02T19:26:05.304Z,73.64
2023-04-02T19:34:35.326Z,73.66
2023-04-02T19:42:58.803Z,73.59
2023-04-02T19:51:21.732Z,73.63
2023-04-02T19:59:44.796Z,73.64
2023-04-02T20:08:07.895Z,73.69
2023-04-02T20:16:31.075Z,73.68
2023-04-02T20:24:54.923Z,73.78
2023-04-02T20:33:19.399Z,73.85
2023-04-02T20:41:42.380Z,73.72
2023-04-02T20:50:06.223Z,73.72
2023-04-02T20:58:29.243Z,73.88
2023-04-02T21:06:57.141Z,73.86
2023-04-02T21:15:20.366Z,73.84
2023-04-02T21:23:45.203Z,73.93
2023-04-02T21:32:20.228Z,73.83
2023-04-02T21:40:44.065Z,73.92
2023-04-02T21:49:08.513Z,73.98
2023-04-02T21:57:31.639Z,73.86
2023-04-02T22:06:24.291Z,74.13
2023-04-02T22:14:47.260Z,73.80
2023-04-02T22:23:10.995Z,73.87
2023-04-02T22:31:35.332Z,74.02
2023-04-02T22:39:58.450Z,74.13
2023-04-02T22:48:21.567Z,74.10
2023-04-02T22:56:54.175Z,74.07
2023-04-02T23:05:17.397Z,73.85
2023-04-02T23:13:41.094Z,73.93
2023-04-02T23:22:04.154Z,73.99
2023-04-02T23:30:27.065Z,73.99
2023-04-02T23:38:55.859Z,73.76
2023-04-02T23:47:18.829Z,74.04
2023-04-02T23:55:41.753Z,73.95
